createdAt,value
2022-10-03T00:00:14.715Z,12.35
2022-10-03T00:03:04.242Z,12.41
2022-10-03T00:05:46.455Z,12.39
2022-10-03T00:08:28.285Z,12.43
2022-10-03T00:11:08.276Z,12.46
2022-10-03T00:13:47.444Z,12.49
2022-10-03T00:16:25.069Z,12.51
2022-10-03T00:19:04.219Z,12.53
2022-10-03T00:21:49.010Z,12.54
2022-10-03T00:24:31.194Z,12.53
2022-10-03T00:27:07.557Z,12.52
2022-10-03T00:29:59.805Z,12.46
2022-10-03T00:32:43.878Z,12.40
2022-10-03T00:35:37.254Z,12.39
2022-10-03T00:38:22.095Z,12.41
2022-10-03T00:41:14.966Z,12.45
2022-10-03T00:44:09.265Z,12.45
2022-10-03T00:47:00.238Z,12.51
2022-10-03T00:49:50.894Z,12.54
2022-10-03T00:52:44.570Z,12.57
2022-10-03T00:55:28.617Z,12.54
2022-10-03T00:58:08.356Z,12.56
2022-10-03T01:00:36.976Z,12.53
2022-10-03T01:03:24.136Z,12.58
2022-10-03T01:06:08.457Z,12.61
2022-10-03T01:08:57.465Z,12.65
2022-10-03T01:11:38.172Z,12.60
2022-10-03T01:14:24.538Z,12.71
2022-10-03T01:17:05.287Z,12.72
2022-10-03T01:20:01.298Z,12.74
2022-10-03T01:22:57.800Z,12.77
2022-10-03T01:25:39.836Z,12.75
2022-10-03T01:28:47.757Z,12.78
2022-10-03T01:31:23.277Z,12.80
2022-10-03T01:34:00.655Z,12.76
2022-10-03T01:36:36.227Z,12.80
2022-10-03T01:39:15.155Z,12.77
2022-10-03T01:41:53.867Z,12.76
2022-10-03T01:44:31.704Z,12.72
2022-10-03T01:47:18.081Z,12.67
2022-10-03T01:49:52.986Z,12.66
2022-10-03T01:52:30.694Z,12.61
2022-10-03T01:55:07.395Z,12.64
2022-10-03T01:57:44.053Z,12.63
2022-10-03T02:00:17.890Z,12.61
2022-10-03T02:02:51.177Z,12.59
2022-10-03T02:05:29.757Z,12.58
2022-10-03T02:08:07.385Z,12.56
2022-10-03T02:10:47.065Z,12.54
2022-10-03T02:13:23.325Z,12.56
2022-10-03T02:16:04.861Z,12.52
2022-10-03T02:18:46.445Z,12.52
2022-10-03T02:21:19.017Z,12.53
2022-10-03T02:23:49.785Z,12.53
2022-10-03T02:26:42.718Z,12.58
2022-10-03T02:29:37.438Z,12.59
2022-10-03T02:32:39.386Z,12.58
2022-10-03T02:35:30.225Z,12.58
2022-10-03T02:38:26.283Z,12.58
2022-10-03T02:41:21.318Z,12.58
2022-10-03T02:44:18.707Z,12.56
2022-10-03T02:47:16.218Z,12.55
2022-10-03T02:50:14.768Z,12.56
2022-10-03T02:53:05.238Z,12.55
2022-10-03T02:56:04.848Z,12.54
2022-10-03T02:58:41.900Z,12.52
2022-10-03T03:01:31.657Z,12.49
2022-10-03T03:04:22.890Z,12.50
2022-10-03T03:07:21.259Z,12.47
2022-10-03T03:10:11.628Z,12.42
2022-10-03T03:13:04.691Z,12.42
2022-10-03T03:16:01.906Z,12.39
2022-10-03T03:18:38.512Z,12.40
2022-10-03T03:21:30.868Z,12.40
2022-10-03T03:24:18.130Z,12.41
2022-10-03T03:26:58.081Z,12.39
2022-10-03T03:29:40.608Z,12.40
2022-10-03T03:32:22.033Z,12.40
2022-10-03T03:35:01.290Z,12.41
2022-10-03T03:37:39.032Z,12.39
2022-10-03T03:40:32.852Z,12.39
2022-10-03T03:43:26.750Z,12.37
2022-10-03T03:46:08.108Z,12.37
2022-10-03T03:49:02.566Z,12.37
2022-10-03T03:51:39.196Z,12.34
2022-10-03T03:54:38.997Z,12.34
2022-10-03T03:57:24.532Z,12.34
2022-10-03T04:00:09.420Z,12.35
2022-10-03T04:03:04.844Z,12.29
2022-10-03T04:05:46.311Z,12.27
2022-10-03T04:08:40.458Z,12.26
2022-10-03T04:11:23.728Z,12.24
2022-10-03T04:14:17.371Z,12.21
2022-10-03T04:17:11.821Z,12.20
2022-10-03T04:19:55.491Z,12.19
2022-10-03T04:22:38.982Z,12.19
2022-10-03T04:25:20.881Z,12.18
2022-10-03T04:28:11.134Z,12.19
2022-10-03T04:30:53.451Z,12.15
2022-10-03T04:33:33.207Z,12.14
2022-10-03T04:36:42.969Z,12.13
2022-10-03T04:39:24.501Z,12.13
2022-10-03T04:42:00.289Z,12.15
2022-10-03T04:44:40.970Z,12.18
2022-10-03T04:47:18.449Z,12.15
2022-10-03T04:49:53.759Z,12.20
2022-10-03T04:52:32.271Z,12.20
2022-10-03T04:55:17.189Z,12.22
2022-10-03T04:57:52.887Z,12.19
2022-10-03T05:00:25.552Z,12.24
2022-10-03T05:03:02.771Z,12.24
2022-10-03T05:05:49.959Z,12.23
2022-10-03T05:08:33.439Z,12.28
2022-10-03T05:11:29.592Z,12.29
2022-10-03T05:14:12.268Z,12.29
2022-10-03T05:16:46.652Z,12.28
2022-10-03T05:19:48.152Z,12.26
2022-10-03T05:22:30.730Z,12.26
2022-10-03T05:25:15.340Z,12.25
2022-10-03T05:27:53.439Z,12.28
2022-10-03T05:30:36.041Z,12.30
2022-10-03T05:33:14.502Z,12.32
2022-10-03T05:35:56.929Z,12.35
2022-10-03T05:38:50.280Z,12.33
2022-10-03T05:41:28.083Z,12.35
2022-10-03T05:44:07.029Z,12.36
2022-10-03T05:46:47.623Z,12.41
2022-10-03T05:49:35.500Z,12.48
2022-10-03T05:52:28.930Z,12.58
2022-10-03T05:55:15.481Z,12.67
2022-10-03T05:58:15.376Z,12.75
2022-10-03T06:01:11.564Z,12.86
2022-10-03T06:04:10.861Z,12.98
2022-10-03T06:06:59.684Z,13.06
2022-10-03T06:09:58.297Z,13.15
2022-10-03T06:12:36.350Z,13.27
2022-10-03T06:15:26.473Z,13.32
2022-10-03T06:18:05.629Z,13.34
2022-10-03T06:20:55.431Z,13.30
2022-10-03T06:23:50.049Z,13.24
2022-10-03T06:26:40.914Z,13.18
2022-10-03T06:29:44.623Z,13.15
2022-10-03T06:32:35.332Z,13.13
2022-10-03T06:35:25.862Z,13.14
2022-10-03T06:38:18.681Z,13.14
2022-10-03T06:41:10.324Z,13.14
2022-10-03T06:44:03.440Z,13.07
2022-10-03T06:46:57.672Z,13.11
2022-10-03T06:49:54.034Z,13.17
2022-10-03T06:52:45.450Z,13.33
2022-10-03T06:55:39.769Z,13.55
2022-10-03T06:58:38.923Z,13.73
2022-10-03T07:01:44.998Z,14.02
2022-10-03T07:04:37.314Z,14.26
2022-10-03T07:07:23.975Z,14.36
2022-10-03T07:10:24.437Z,14.30
2022-10-03T07:13:20.432Z,14.14
2022-10-03T07:16:25.891Z,14.00
2022-10-03T07:19:24.305Z,13.91
2022-10-03T07:22:25.277Z,13.78
2022-10-03T07:25:25.843Z,13.73
2022-10-03T07:28:09.321Z,13.68
2022-10-03T07:30:59.025Z,13.66
2022-10-03T07:33:42.473Z,13.63
2022-10-03T07:36:49.315Z,13.62
2022-10-03T07:39:45.552Z,13.57
2022-10-03T07:42:46.929Z,13.64
2022-10-03T07:45:34.924Z,13.68
2022-10-03T07:48:23.008Z,13.73
2022-10-03T07:51:14.413Z,13.73
2022-10-03T07:54:05.339Z,13.72
2022-10-03T07:57:05.942Z,13.77
2022-10-03T07:59:59.696Z,13.79
2022-10-03T08:02:59.763Z,13.81
2022-10-03T08:05:42.290Z,13.87
2022-10-03T08:08:44.869Z,13.88
2022-10-03T08:11:42.736Z,13.87
2022-10-03T08:14:20.422Z,13.87
2022-10-03T08:17:10.892Z,13.92
2022-10-03T08:20:02.845Z,13.95
2022-10-03T08:22:49.446Z,13.97
2022-10-03T08:25:28.544Z,13.99
2022-10-03T08:28:23.157Z,14.02
2022-10-03T08:31:26.046Z,14.07
2022-10-03T08:34:23.890Z,14.06
2022-10-03T08:37:23.078Z,14.04
2022-10-03T08:40:17.310Z,14.09
2022-10-03T08:43:24.498Z,14.08
2022-10-03T08:46:05.296Z,14.09
2022-10-03T08:48:53.447Z,14.02
2022-10-03T08:51:54.665Z,14.01
2022-10-03T08:54:42.867Z,14.02
2022-10-03T08:57:30.927Z,14.06
2022-10-03T09:00:15.707Z,14.03
2022-10-03T09:06:25.625Z,14.07
2022-10-03T09:09:15.255Z,14.03
2022-10-03T09:12:02.292Z,14.02
2022-10-03T09:14:45.945Z,14.07
2022-10-03T09:17:49.451Z,14.01
2022-10-03T09:20:51.148Z,13.99
2022-10-03T09:23:49.786Z,13.95
2022-10-03T09:26:51.959Z,14.07
2022-10-03T09:29:40.013Z,14.13
2022-10-03T09:32:40.163Z,14.24
2022-10-03T09:35:28.749Z,14.32
2022-10-03T09:38:27.829Z,14.38
2022-10-03T09:41:22.139Z,14.41
2022-10-03T09:44:21.437Z,14.45
2022-10-03T09:47:21.309Z,14.46
2022-10-03T09:50:24.788Z,14.48
2022-10-03T09:53:20.001Z,14.49
2022-10-03T09:56:14.457Z,14.43
2022-10-03T09:59:11.646Z,14.33
2022-10-03T10:01:51.270Z,14.34
2022-10-03T10:04:50.574Z,14.30
2022-10-03T10:07:51.424Z,14.23
2022-10-03T10:10:48.338Z,14.24
2022-10-03T10:14:02.783Z,14.27
2022-10-03T10:16:57.055Z,14.24
2022-10-03T10:19:53.149Z,14.32
2022-10-03T10:22:43.589Z,14.42
2022-10-03T10:25:31.639Z,14.48
2022-10-03T10:28:27.080Z,14.48
2022-10-03T10:31:21.507Z,14.57
2022-10-03T10:34:21.804Z,14.63
2022-10-03T10:37:34.460Z,14.71
2022-10-03T10:40:29.736Z,14.70
2022-10-03T10:43:30.187Z,14.68
2022-10-03T10:46:31.015Z,14.62
2022-10-03T10:49:40.271Z,14.44
2022-10-03T10:52:29.046Z,14.37
2022-10-03T10:55:25.138Z,14.40
2022-10-03T10:58:29.489Z,14.40
2022-10-03T11:01:30.230Z,14.43
2022-10-03T11:04:36.282Z,14.42
2022-10-03T11:07:27.951Z,14.47
2022-10-03T11:10:25.300Z,14.49
2022-10-03T11:13:22.509Z,14.57
2022-10-03T11:16:29.951Z,14.63
2022-10-03T11:19:27.340Z,14.64
2022-10-03T11:22:25.610Z,14.67
2022-10-03T11:25:14.865Z,14.66
2022-10-03T11:28:11.347Z,14.73
2022-10-03T11:31:09.774Z,14.84
2022-10-03T11:34:12.790Z,15.03
2022-10-03T11:37:02.237Z,15.55
2022-10-03T11:39:42.208Z,15.81
2022-10-03T11:42:25.231Z,15.85
2022-10-03T11:45:00.259Z,15.77
2022-10-03T11:47:44.199Z,15.84
2022-10-03T11:50:35.283Z,16.31
2022-10-03T11:53:16.229Z,16.69
2022-10-03T11:55:52.070Z,16.98
2022-10-03T11:58:38.488Z,17.14
2022-10-03T12:01:26.210Z,17.15
2022-10-03T12:04:04.731Z,16.98
2022-10-03T12:07:01.228Z,16.89
2022-10-03T12:09:43.998Z,16.91
2022-10-03T12:12:22.390Z,16.86
2022-10-03T12:14:54.107Z,17.11
2022-10-03T12:17:32.110Z,17.31
2022-10-03T12:20:16.063Z,17.35
2022-10-03T12:22:52.198Z,17.15
2022-10-03T12:25:24.768Z,16.95
2022-10-03T12:28:13.446Z,16.89
2022-10-03T12:30:49.191Z,16.82
2022-10-03T12:33:32.989Z,16.73
2022-10-03T12:36:14.186Z,16.63
2022-10-03T12:38:58.000Z,16.58
2022-10-03T12:41:54.039Z,16.60
2022-10-03T12:44:38.041Z,16.55
2022-10-03T12:47:43.882Z,16.53
2022-10-03T12:50:31.482Z,16.48
2022-10-03T12:53:21.411Z,16.45
2022-10-03T12:56:01.782Z,16.33
2022-10-03T12:58:42.332Z,16.29
2022-10-03T13:01:18.280Z,16.59
2022-10-03T13:03:54.460Z,17.15
2022-10-03T13:07:09.715Z,17.43
2022-10-03T13:10:00.364Z,17.52
2022-10-03T13:12:39.834Z,17.86
2022-10-03T13:15:44.581Z,18.08
2022-10-03T13:18:39.585Z,18.22
2022-10-03T13:21:41.149Z,18.36
2022-10-03T13:24:08.913Z,18.53
2022-10-03T13:26:53.844Z,18.73
2022-10-03T13:29:27.272Z,18.79
2022-10-03T13:32:08.060Z,18.78
2022-10-03T13:34:49.211Z,18.55
2022-10-03T13:37:27.321Z,18.49
2022-10-03T13:40:05.585Z,18.23
2022-10-03T13:42:41.232Z,17.92
2022-10-03T13:45:16.630Z,17.64
2022-10-03T13:47:48.267Z,17.38
2022-10-03T13:50:22.734Z,17.12
2022-10-03T13:52:57.278Z,16.95
2022-10-03T13:55:36.235Z,16.79
2022-10-03T13:58:25.278Z,16.62
2022-10-03T14:01:17.465Z,16.75
2022-10-03T14:04:05.735Z,16.99
2022-10-03T14:06:42.017Z,17.32
2022-10-03T14:09:33.144Z,17.52
2022-10-03T14:12:11.016Z,17.70
2022-10-03T14:14:55.883Z,17.55
2022-10-03T14:17:31.634Z,17.19
2022-10-03T14:20:18.654Z,17.07
2022-10-03T14:23:10.117Z,17.05
2022-10-03T14:25:44.362Z,16.92
2022-10-03T14:28:20.931Z,16.72
2022-10-03T14:31:08.302Z,16.63
2022-10-03T14:33:45.266Z,16.56
2022-10-03T14:36:34.465Z,16.77
2022-10-03T14:39:22.262Z,16.77
2022-10-03T14:42:14.315Z,16.80
2022-10-03T14:44:45.977Z,16.75
2022-10-03T14:47:18.758Z,16.71
2022-10-03T14:49:59.125Z,16.71
2022-10-03T14:52:38.698Z,16.66
2022-10-03T14:55:15.117Z,16.49
2022-10-03T14:58:09.165Z,16.26
2022-10-03T15:00:45.596Z,16.10
2022-10-03T15:03:33.996Z,15.98
2022-10-03T15:06:21.754Z,15.92
2022-10-03T15:08:54.054Z,15.76
2022-10-03T15:11:28.509Z,15.66
2022-10-03T15:14:02.857Z,15.57
2022-10-03T15:16:37.436Z,15.37
2022-10-03T15:19:14.736Z,15.32
2022-10-03T15:21:46.347Z,15.30
2022-10-03T15:24:25.351Z,15.25
2022-10-03T15:27:01.906Z,15.21
2022-10-03T15:29:32.498Z,15.18
2022-10-03T15:32:01.777Z,15.08
2022-10-03T15:34:35.286Z,14.97
2022-10-03T15:37:14.545Z,14.93
2022-10-03T15:39:45.987Z,14.89
2022-10-03T15:42:25.825Z,14.89
2022-10-03T15:44:58.607Z,14.84
2022-10-03T15:47:29.874Z,14.78
2022-10-03T15:50:07.641Z,14.75
2022-10-03T15:52:41.569Z,14.70
2022-10-03T15:55:18.486Z,14.62
2022-10-03T15:57:49.493Z,14.57
2022-10-03T16:00:24.787Z,14.54
2022-10-03T16:03:02.516Z,14.48
2022-10-03T16:05:34.164Z,14.41
2022-10-03T16:08:09.187Z,14.34
2022-10-03T16:10:41.786Z,14.30
2022-10-03T16:13:29.716Z,14.28
2022-10-03T16:16:14.879Z,14.26
2022-10-03T16:19:11.057Z,14.26
2022-10-03T16:21:52.987Z,14.29
2022-10-03T16:24:32.997Z,14.26
2022-10-03T16:27:07.678Z,14.22
2022-10-03T16:29:39.567Z,14.17
2022-10-03T16:32:12.014Z,14.13
2022-10-03T16:34:45.877Z,14.06
2022-10-03T16:37:22.096Z,14.00
2022-10-03T16:40:00.945Z,13.94
2022-10-03T16:42:41.194Z,13.89
2022-10-03T16:45:22.474Z,13.86
2022-10-03T16:48:14.288Z,13.84
2022-10-03T16:50:48.064Z,13.80
2022-10-03T16:53:19.974Z,13.80
2022-10-03T16:55:59.249Z,13.81
2022-10-03T16:58:32.406Z,13.76
2022-10-03T17:04:00.277Z,13.74
2022-10-03T17:06:32.737Z,13.73
2022-10-03T17:09:08.075Z,13.74
2022-10-03T17:11:39.878Z,13.75
2022-10-03T17:14:10.833Z,13.75
2022-10-03T17:16:47.934Z,13.77
2022-10-03T17:19:29.176Z,13.73
2022-10-03T17:22:06.094Z,13.73
2022-10-03T17:24:47.049Z,13.71
2022-10-03T17:27:24.423Z,13.67
2022-10-03T17:29:58.417Z,13.64
2022-10-03T17:32:35.556Z,13.60
2022-10-03T17:35:12.657Z,13.60
2022-10-03T17:38:24.634Z,13.58
2022-10-03T17:41:17.042Z,13.58
2022-10-03T17:43:51.347Z,13.60
2022-10-03T17:46:28.954Z,13.60
2022-10-03T17:49:07.418Z,13.62
2022-10-03T17:51:40.147Z,13.63
2022-10-03T17:54:15.703Z,13.61
2022-10-03T17:56:53.640Z,13.56
2022-10-03T17:59:28.628Z,13.54
2022-10-03T18:02:02.973Z,13.50
2022-10-03T18:04:37.679Z,13.47
2022-10-03T18:07:11.040Z,13.43
2022-10-03T18:09:47.915Z,13.41
2022-10-03T18:12:27.905Z,13.41
2022-10-03T18:15:25.434Z,13.38
2022-10-03T18:18:31.600Z,13.28
2022-10-03T18:21:05.718Z,13.31
2022-10-03T18:23:54.854Z,13.24
2022-10-03T18:26:29.277Z,13.23
2022-10-03T18:29:14.830Z,13.22
2022-10-03T18:31:47.338Z,13.21
2022-10-03T18:34:21.459Z,13.21
2022-10-03T18:36:53.549Z,13.19
2022-10-03T18:39:26.847Z,13.17
2022-10-03T18:41:59.699Z,13.14
2022-10-03T18:44:32.415Z,13.12
2022-10-03T18:47:17.108Z,13.10
2022-10-03T18:49:53.464Z,13.11
2022-10-03T18:52:28.441Z,13.12
2022-10-03T18:55:01.910Z,13.09
2022-10-03T18:57:38.719Z,13.09
2022-10-03T19:00:19.499Z,13.11
2022-10-03T19:02:53.565Z,13.10
2022-10-03T19:05:25.885Z,13.10
2022-10-03T19:08:08.733Z,13.09
2022-10-03T19:10:41.449Z,13.08
2022-10-03T19:13:25.349Z,13.11
2022-10-03T19:16:14.949Z,13.13
2022-10-03T19:18:45.517Z,13.13
2022-10-03T19:21:20.625Z,13.15
2022-10-03T19:23:54.679Z,13.09
2022-10-03T19:26:34.899Z,13.17
2022-10-03T19:29:08.058Z,13.17
2022-10-03T19:31:41.995Z,13.18
2022-10-03T19:34:19.067Z,13.20
2022-10-03T19:36:51.809Z,13.21
2022-10-03T19:39:23.521Z,13.22
2022-10-03T19:41:57.437Z,13.22
2022-10-03T19:44:28.198Z,13.23
2022-10-03T19:47:11.278Z,13.21
2022-10-03T19:49:51.808Z,13.21
2022-10-03T19:52:27.338Z,13.18
2022-10-03T19:55:13.186Z,13.16
2022-10-03T19:57:45.580Z,13.14
2022-10-03T20:00:36.956Z,13.14
2022-10-03T20:03:14.066Z,13.13
2022-10-03T20:06:01.096Z,13.13
2022-10-03T20:08:40.398Z,13.11
2022-10-03T20:11:29.536Z,13.09
2022-10-03T20:13:59.619Z,13.09
2022-10-03T20:16:36.100Z,13.09
2022-10-03T20:19:10.327Z,13.07
2022-10-03T20:21:39.872Z,13.11
2022-10-03T20:24:17.917Z,13.12
2022-10-03T20:26:56.710Z,13.08
2022-10-03T20:29:33.534Z,13.09
2022-10-03T20:32:04.005Z,13.09
2022-10-03T20:34:37.386Z,13.11
2022-10-03T20:37:29.727Z,13.12
2022-10-03T20:40:08.749Z,13.10
2022-10-03T20:42:40.191Z,13.10
2022-10-03T20:45:18.706Z,13.10
2022-10-03T20:48:02.537Z,13.06
2022-10-03T20:50:37.174Z,13.02
2022-10-03T20:53:22.712Z,13.01
2022-10-03T20:55:55.180Z,12.96
2022-10-03T20:58:31.241Z,12.94
2022-10-03T21:01:04.841Z,12.93
2022-10-03T21:03:43.361Z,12.88
2022-10-03T21:06:21.229Z,12.85
2022-10-03T21:08:50.671Z,12.85
2022-10-03T21:11:24.330Z,12.87
2022-10-03T21:13:57.038Z,12.88
2022-10-03T21:16:29.466Z,12.89
2022-10-03T21:19:01.988Z,12.87
2022-10-03T21:21:40.924Z,12.85
2022-10-03T21:24:17.571Z,12.87
2022-10-03T21:26:50.002Z,12.85
2022-10-03T21:29:28.566Z,12.86
2022-10-03T21:32:19.295Z,12.86
2022-10-03T21:34:55.819Z,12.87
2022-10-03T21:37:34.682Z,12.81
2022-10-03T21:40:22.942Z,12.82
2022-10-03T21:43:03.382Z,12.80
2022-10-03T21:45:40.770Z,12.82
2022-10-03T21:48:21.812Z,12.78
2022-10-03T21:50:56.353Z,12.76
2022-10-03T21:53:37.070Z,12.73
2022-10-03T21:56:30.685Z,12.72
2022-10-03T21:59:26.860Z,12.67
2022-10-03T22:02:04.762Z,12.66
2022-10-03T22:04:40.620Z,12.62
2022-10-03T22:07:15.502Z,12.57
2022-10-03T22:09:55.953Z,12.55
2022-10-03T22:12:28.183Z,12.50
2022-10-03T22:15:04.741Z,12.45
2022-10-03T22:17:41.331Z,12.40
2022-10-03T22:20:17.181Z,12.38
2022-10-03T22:22:59.610Z,12.34
2022-10-03T22:25:45.603Z,12.33
2022-10-03T22:28:24.640Z,12.30
2022-10-03T22:31:05.416Z,12.26
2022-10-03T22:33:47.169Z,12.23
2022-10-03T22:36:20.013Z,12.28
2022-10-03T22:38:51.120Z,12.31
2022-10-03T22:41:28.030Z,12.32
2022-10-03T22:43:59.637Z,12.33
2022-10-03T22:46:32.856Z,12.35
2022-10-03T22:49:07.660Z,12.38
2022-10-03T22:51:38.133Z,12.43
2022-10-03T22:54:14.042Z,12.43
2022-10-03T22:56:52.090Z,12.40
2022-10-03T22:59:23.211Z,12.34
2022-10-03T23:01:54.561Z,12.32
2022-10-03T23:04:32.127Z,12.28
2022-10-03T23:07:26.983Z,12.27
2022-10-03T23:10:05.963Z,12.28
2022-10-03T23:12:43.509Z,12.26
2022-10-03T23:15:17.283Z,12.28
2022-10-03T23:18:10.292Z,12.23
2022-10-03T23:20:56.715Z,12.20
2022-10-03T23:23:32.345Z,12.20
2022-10-03T23:26:21.787Z,12.21
2022-10-03T23:29:03.018Z,12.18
2022-10-03T23:31:53.514Z,12.14
2022-10-03T23:34:44.276Z,12.12
2022-10-03T23:37:26.203Z,12.11
2022-10-03T23:40:17.834Z,12.07
2022-10-03T23:42:47.314Z,12.02
2022-10-03T23:45:21.855Z,12.05
2022-10-03T23:47:55.632Z,12.02
2022-10-03T23:50:27.974Z,11.99
2022-10-03T23:52:59.894Z,12.00
2022-10-03T23:55:31.435Z,12.02
2022-10-03T23:58:01.464Z,12.03
